Time;durP1;ratioP1;P1;durP2;ratioP2;P2;SDS_P1;SDS_P2;PMS_P1;PMS_P2;Temp;Humidity;BMP_temperature;BMP_pressure;BME280_temperature;BME280_humidity;BME280_pressure;Samples;Min_cycle;Max_cycle;Signal;HPM_P1;HPM_P2
2022/01/08 00:00:52;;;;;;;22.27;15.52;;;2.60;99.90;;;;;;5006185;28;20046;-72
2022/01/08 00:03:17;;;;;;;20.55;15.65;;;2.60;99.90;;;;;;5007811;28;20136;-74
2022/01/08 00:05:43;;;;;;;19.70;15.77;;;2.60;99.90;;;;;;5006153;28;20597;-73
2022/01/08 00:08:09;;;;;;;20.95;15.90;;;2.60;99.90;;;;;;5007236;28;20042;-73
2022/01/08 00:10:34;;;;;;;22.40;15.95;;;2.50;99.90;;;;;;5009338;28;20634;-72
2022/01/08 00:13:04;;;;;;;21.88;15.70;;;2.50;99.90;;;;;;5007160;28;20073;-73
2022/01/08 00:15:29;;;;;;;23.90;17.08;;;2.60;99.90;;;;;;5002161;28;20073;-73
2022/01/08 00:17:55;;;;;;;24.65;16.98;;;2.50;99.90;;;;;;5006816;28;20085;-73
2022/01/08 00:20:21;;;;;;;22.60;18.33;;;2.50;99.90;;;;;;5005763;28;20474;-73
2022/01/08 00:22:50;;;;;;;22.42;18.15;;;2.50;99.90;;;;;;5006077;28;20099;-73
2022/01/08 00:25:16;;;;;;;22.95;18.13;;;2.50;99.90;;;;;;5005964;28;20143;-73
2022/01/08 00:27:41;;;;;;;23.90;18.80;;;2.60;99.90;;;;;;5006322;28;20042;-73
2022/01/08 00:30:08;;;;;;;25.55;19.20;;;2.60;99.90;;;;;;5001440;28;21841;-72
2022/01/08 00:32:34;;;;;;;25.98;20.45;;;2.60;99.90;;;;;;5005137;28;20046;-73
2022/01/08 00:34:59;;;;;;;26.23;22.23;;;2.60;99.90;;;;;;4998450;28;20052;-73
2022/01/08 00:37:25;;;;;;;25.30;21.08;;;2.70;99.90;;;;;;5005092;28;20049;-73
2022/01/08 00:39:51;;;;;;;27.38;22.45;;;2.70;99.90;;;;;;5004655;28;20046;-73
2022/01/08 00:42:16;;;;;;;29.25;23.10;;;2.70;99.90;;;;;;5006950;28;20050;-73
2022/01/08 00:44:42;;;;;;;27.85;22.73;;;2.70;99.90;;;;;;5001214;28;20044;-73
2022/01/08 00:47:08;;;;;;;29.90;22.92;;;2.70;99.90;;;;;;5006756;28;20048;-73
2022/01/08 00:49:34;;;;;;;29.02;23.05;;;2.70;99.90;;;;;;5006442;28;20042;-73
2022/01/08 00:51:59;;;;;;;27.83;24.23;;;2.70;99.90;;;;;;5006054;28;20129;-74
2022/01/08 00:54:25;;;;;;;33.30;24.38;;;2.70;99.90;;;;;;5003644;28;20045;-73
2022/01/08 00:56:51;;;;;;;30.85;25.38;;;2.70;99.90;;;;;;5005007;28;20054;-73
2022/01/08 00:59:17;;;;;;;29.58;24.50;;;2.70;99.90;;;;;;5003792;28;20053;-73
2022/01/08 01:01:43;;;;;;;28.55;24.08;;;2.70;99.90;;;;;;4997843;28;20046;-73
2022/01/08 01:04:08;;;;;;;30.35;24.95;;;2.70;99.90;;;;;;5007215;28;20054;-73
2022/01/08 01:06:34;;;;;;;31.02;24.17;;;2.70;99.90;;;;;;5004471;28;20433;-73
2022/01/08 01:09:00;;;;;;;30.92;24.60;;;2.80;99.90;;;;;;5001437;28;20120;-72
2022/01/08 01:11:25;;;;;;;30.83;24.95;;;2.80;99.90;;;;;;5007002;28;20453;-73
2022/01/08 01:13:51;;;;;;;31.92;25.50;;;2.70;99.90;;;;;;5005634;28;20046;-73
2022/01/08 01:16:18;;;;;;;28.23;23.77;;;2.70;99.90;;;;;;5005886;28;20069;-73
2022/01/08 01:18:44;;;;;;;30.95;24.65;;;2.70;99.90;;;;;;5015613;28;20405;-73
2022/01/08 01:21:10;;;;;;;30.45;24.27;;;2.70;99.90;;;;;;5010739;28;20050;-73
2022/01/08 01:23:40;;;;;;;31.95;25.00;;;2.70;99.90;;;;;;5009184;28;20172;-73
2022/01/08 01:26:10;;;;;;;30.27;23.98;;;2.70;99.90;;;;;;5010119;28;20053;-73
2022/01/08 01:42:06;;;;;;;29.85;24.20;;;2.70;99.90;;;;;;5009617;28;20081;-73
2022/01/08 01:47:28;;;;;;;29.92;24.58;;;2.60;99.90;;;;;;5009186;28;20045;-73
2022/01/08 01:49:54;;;;;;;29.20;23.85;;;2.60;99.90;;;;;;5007084;28;20050;-72
2022/01/08 01:52:20;;;;;;;27.42;24.00;;;2.60;99.90;;;;;;5012979;28;20116;-73
2022/01/08 01:54:45;;;;;;;30.90;25.20;;;2.50;99.90;;;;;;5006762;28;20038;-73
2022/01/08 01:57:17;;;;;;;29.88;24.33;;;2.50;99.90;;;;;;5005800;28;20046;-73
2022/01/08 01:59:43;;;;;;;29.98;23.38;;;2.50;99.90;;;;;;5009304;28;20132;-73
2022/01/08 02:02:09;;;;;;;29.15;23.27;;;2.50;99.90;;;;;;5004931;28;20041;-73
2022/01/08 02:04:35;;;;;;;27.77;22.67;;;2.40;99.90;;;;;;5009214;28;20053;-73
2022/01/08 02:07:01;;;;;;;27.92;22.50;;;2.40;99.90;;;;;;5007755;28;20129;-73
2022/01/08 02:09:27;;;;;;;25.52;22.83;;;2.40;99.90;;;;;;5008875;28;20112;-73
2022/01/08 02:12:17;;;;;;;25.30;22.10;;;2.40;99.90;;;;;;5006141;28;20248;-73
2022/01/08 02:14:45;;;;;;;25.35;22.27;;;2.30;99.90;;;;;;5005740;28;20042;-73
2022/01/08 02:17:11;;;;;;;27.90;22.83;;;2.30;99.90;;;;;;5008936;28;20875;-73
2022/01/08 02:19:38;;;;;;;28.48;23.48;;;2.30;99.90;;;;;;5006870;28;20042;-73
2022/01/08 02:22:05;;;;;;;;;;;2.30;99.90;;;;;;5002935;28;20077;-74
2022/01/08 02:24:30;;;;;;;28.92;21.67;;;2.20;99.90;;;;;;5005633;28;19953;-73
2022/01/08 02:26:56;;;;;;;27.35;22.25;;;2.20;99.90;;;;;;5005931;28;20477;-73
2022/01/08 02:29:24;;;;;;;28.23;21.95;;;2.20;99.90;;;;;;5005315;28;20041;-73
2022/01/08 02:32:01;;;;;;;;;;;2.20;99.90;;;;;;5009597;28;20092;-73
2022/01/08 02:34:27;;;;;;;29.98;23.65;;;2.20;99.90;;;;;;5004293;28;19921;-73
2022/01/08 02:36:54;;;;;;;27.08;21.52;;;2.20;99.90;;;;;;5009728;28;20088;-74
2022/01/08 02:39:20;;;;;;;27.88;21.95;;;2.20;99.90;;;;;;5014533;28;20099;-73
2022/01/08 02:41:46;;;;;;;27.60;21.85;;;2.20;99.90;;;;;;5004293;28;20497;-73
2022/01/08 02:44:12;;;;;;;28.20;20.85;;;2.20;99.90;;;;;;5004666;28;20108;-73
2022/01/08 02:46:39;;;;;;;26.67;21.45;;;2.20;99.90;;;;;;5004471;28;20050;-73
2022/01/08 02:49:06;;;;;;;24.80;20.17;;;2.20;99.90;;;;;;5005440;28;20092;-73
2022/01/08 02:51:34;;;;;;;24.15;19.92;;;2.20;99.90;;;;;;5007327;28;20093;-73
2022/01/08 02:54:00;;;;;;;26.00;20.23;;;2.20;99.90;;;;;;4996672;28;20058;-73
2022/01/08 02:56:26;;;;;;;27.15;20.27;;;2.20;99.90;;;;;;5006000;28;20070;-73
2022/01/08 02:58:51;;;;;;;27.90;19.73;;;2.10;99.90;;;;;;5007222;28;20085;-73
2022/01/08 03:01:17;;;;;;;26.40;20.58;;;2.10;99.90;;;;;;5002521;28;20045;-73
2022/01/08 03:03:43;;;;;;;24.05;18.67;;;2.10;99.90;;;;;;5004844;28;20515;-73
2022/01/08 03:06:08;;;;;;;24.33;18.48;;;2.10;99.90;;;;;;5006510;28;20049;-73
2022/01/08 03:08:34;;;;;;;26.33;19.50;;;2.10;99.90;;;;;;5006561;28;20116;-73
2022/01/08 03:10:59;;;;;;;25.48;18.02;;;2.10;99.90;;;;;;5006410;28;20048;-73
2022/01/08 03:13:25;;;;;;;24.85;18.58;;;2.10;99.90;;;;;;5007676;28;20108;-73
2022/01/08 03:15:51;;;;;;;26.65;17.80;;;2.10;99.90;;;;;;5002690;28;20540;-73
2022/01/08 03:18:16;;;;;;;23.30;18.70;;;2.10;99.90;;;;;;4969784;28;1133087;-73
2022/01/08 03:20:48;;;;;;;26.63;19.02;;;2.00;99.90;;;;;;5008738;28;20058;-73
2022/01/08 03:23:17;;;;;;;25.05;18.42;;;2.00;99.90;;;;;;5006475;28;20034;-73
2022/01/08 03:25:44;;;;;;;26.60;18.52;;;2.00;99.90;;;;;;5009316;28;20077;-73
2022/01/08 03:28:11;;;;;;;24.48;17.63;;;2.00;99.90;;;;;;5009108;28;20541;-74
2022/01/08 03:30:38;;;;;;;24.98;17.48;;;2.00;99.90;;;;;;5008345;28;20038;-73
2022/01/08 03:33:04;;;;;;;23.52;17.90;;;2.00;99.90;;;;;;5004572;28;20057;-73
2022/01/08 03:35:30;;;;;;;26.27;16.52;;;2.00;99.90;;;;;;5005896;28;20046;-73
2022/01/08 03:37:56;;;;;;;21.20;17.25;;;2.00;99.90;;;;;;5006196;28;20140;-73
2022/01/08 03:40:21;;;;;;;23.85;16.98;;;2.00;99.90;;;;;;5011198;28;20046;-73
2022/01/08 03:42:47;;;;;;;23.88;17.20;;;2.00;99.90;;;;;;5007645;28;20076;-72
2022/01/08 03:45:13;;;;;;;21.75;16.05;;;2.00;99.90;;;;;;5003645;28;20124;-73
2022/01/08 03:50:13;;;;;;;24.27;16.52;;;2.00;99.90;;;;;;5007172;28;20053;-73
2022/01/08 03:52:39;;;;;;;22.92;16.30;;;2.00;99.90;;;;;;5006082;28;20042;-74
2022/01/08 03:55:05;;;;;;;23.73;16.88;;;2.00;99.90;;;;;;5005958;28;20053;-73
2022/01/08 03:57:30;;;;;;;23.90;15.52;;;2.00;99.90;;;;;;5006831;28;20540;-73
2022/01/08 03:59:56;;;;;;;24.42;16.92;;;1.90;99.90;;;;;;5011320;28;20041;-73
2022/01/08 04:02:21;;;;;;;23.08;17.30;;;1.90;99.90;;;;;;5010758;28;20049;-73
2022/01/08 04:04:48;;;;;;;28.23;17.88;;;1.90;99.90;;;;;;5005327;28;20499;-73
2022/01/08 04:07:14;;;;;;;24.42;17.70;;;1.90;99.90;;;;;;5008288;28;20046;-73
2022/01/08 04:09:39;;;;;;;25.45;18.35;;;1.90;99.90;;;;;;5007912;28;20629;-75
2022/01/08 04:12:07;;;;;;;27.75;18.35;;;1.90;99.90;;;;;;5005820;28;20061;-72
2022/01/08 04:14:47;;;;;;;25.65;18.13;;;1.90;99.90;;;;;;5005470;28;20547;-73
2022/01/08 04:17:14;;;;;;;24.20;17.05;;;1.90;99.90;;;;;;5005557;28;20441;-74
2022/01/08 04:19:39;;;;;;;25.13;18.30;;;1.90;99.90;;;;;;5007530;28;20057;-73
2022/01/08 04:22:13;;;;;;;26.20;18.00;;;1.90;99.90;;;;;;5008109;28;20503;-73
2022/01/08 04:24:40;;;;;;;24.08;16.35;;;1.90;99.90;;;;;;5005312;28;20046;-73
2022/01/08 04:27:06;;;;;;;27.38;18.90;;;1.90;99.90;;;;;;4990997;28;20129;-73
2022/01/08 04:29:31;;;;;;;25.80;17.85;;;1.90;99.90;;;;;;5004920;28;20141;-74
2022/01/08 04:31:57;;;;;;;27.05;18.48;;;1.90;99.90;;;;;;5004618;28;20041;-73
2022/01/08 04:34:23;;;;;;;25.17;18.65;;;1.90;99.90;;;;;;5008851;28;20049;-73
2022/01/08 04:36:48;;;;;;;25.60;18.67;;;2.00;99.90;;;;;;5005957;28;20050;-73
2022/01/08 04:39:14;;;;;;;24.05;18.80;;;2.00;99.90;;;;;;5005716;28;20038;-73
2022/01/08 04:41:41;;;;;;;23.60;17.83;;;2.00;99.90;;;;;;5006268;28;20721;-73
2022/01/08 04:44:08;;;;;;;24.58;18.27;;;2.00;99.90;;;;;;4994642;28;20042;-73
2022/01/08 04:46:33;;;;;;;22.58;17.52;;;1.90;99.90;;;;;;5003310;28;20073;-73
2022/01/08 04:48:59;;;;;;;25.45;18.95;;;1.90;99.90;;;;;;5009109;28;20084;-72
2022/01/08 04:51:25;;;;;;;24.67;18.77;;;1.90;99.90;;;;;;5007689;28;20133;-73
2022/01/08 04:53:51;;;;;;;21.13;17.38;;;1.90;99.90;;;;;;5005149;28;20046;-73
2022/01/08 04:56:17;;;;;;;23.85;16.75;;;1.90;99.90;;;;;;5005761;28;20103;-71
2022/01/08 04:58:42;;;;;;;24.15;18.02;;;1.90;99.90;;;;;;5001485;28;20045;-73
2022/01/08 05:01:13;;;;;;;23.10;18.00;;;1.80;99.90;;;;;;5004049;28;20050;-73
2022/01/08 05:03:38;;;;;;;26.75;18.77;;;1.90;99.90;;;;;;5006006;28;20096;-73
2022/01/08 05:06:04;;;;;;;24.98;19.73;;;1.90;99.90;;;;;;5007401;28;20042;-73
2022/01/08 05:08:30;;;;;;;21.48;17.10;;;1.80;99.90;;;;;;5006086;28;20145;-72
2022/01/08 05:10:55;;;;;;;22.92;19.45;;;1.80;99.90;;;;;;5001356;28;20050;-72
2022/01/08 05:13:21;;;;;;;23.60;18.30;;;1.80;99.90;;;;;;5004759;28;20042;-73
2022/01/08 05:15:47;;;;;;;24.42;18.65;;;1.80;99.90;;;;;;5002998;28;20132;-72
2022/01/08 05:18:12;;;;;;;24.15;18.70;;;1.80;99.90;;;;;;5014114;28;20131;-73
2022/01/08 05:20:41;;;;;;;23.75;19.15;;;1.80;99.90;;;;;;5008036;28;20153;-73
2022/01/08 05:23:07;;;;;;;24.10;17.67;;;1.80;99.90;;;;;;5003664;28;20046;-73
2022/01/08 05:25:33;;;;;;;24.08;18.38;;;1.80;99.90;;;;;;5006975;28;20046;-73
2022/01/08 05:28:00;;;;;;;26.13;18.80;;;1.80;99.90;;;;;;5003122;28;20095;-73
2022/01/08 05:30:27;;;;;;;25.88;19.02;;;1.80;99.90;;;;;;5007748;28;20045;-72
2022/01/08 05:32:53;;;;;;;24.23;18.75;;;1.80;99.90;;;;;;5006252;28;20378;-73
2022/01/08 05:35:20;;;;;;;29.30;18.75;;;1.80;99.90;;;;;;5002289;28;20099;-73
2022/01/08 05:37:46;;;;;;;21.85;18.50;;;1.70;99.90;;;;;;5006223;28;20042;-72
2022/01/08 05:40:11;;;;;;;24.48;18.50;;;1.70;99.90;;;;;;5005881;28;20060;-73
2022/01/08 05:42:37;;;;;;;24.95;18.45;;;1.70;99.90;;;;;;5004090;28;20037;-74
2022/01/08 05:45:04;;;;;;;27.80;18.80;;;1.60;99.90;;;;;;5003618;28;20504;-73
2022/01/08 05:47:32;;;;;;;23.58;18.42;;;1.60;99.90;;;;;;4997679;28;20046;-73
2022/01/08 05:49:58;;;;;;;22.30;17.98;;;1.60;99.90;;;;;;5004228;28;20137;-73
2022/01/08 05:52:23;;;;;;;24.98;18.42;;;1.60;99.90;;;;;;5005411;28;20176;-72
2022/01/08 05:54:49;;;;;;;24.88;19.00;;;1.60;99.90;;;;;;5006913;28;20481;-72
2022/01/08 05:57:15;;;;;;;26.38;18.67;;;1.60;99.90;;;;;;5001360;28;20151;-73
2022/01/08 05:59:41;;;;;;;23.63;18.10;;;1.50;99.90;;;;;;5003632;28;20065;-73
2022/01/08 06:02:09;;;;;;;24.77;18.08;;;1.50;99.90;;;;;;5002841;28;20473;-73
2022/01/08 06:04:35;;;;;;;;;;;1.50;99.90;;;;;;5007749;28;20048;-73
2022/01/08 06:07:00;;;;;;;24.50;19.77;;;1.40;99.90;;;;;;4991380;28;19922;-73
2022/01/08 06:09:26;;;;;;;26.92;19.60;;;1.40;99.90;;;;;;5009147;28;20136;-73
2022/01/08 06:11:51;;;;;;;25.02;19.30;;;1.40;99.90;;;;;;5005802;28;20057;-73
2022/01/08 06:14:17;;;;;;;25.27;18.83;;;1.40;99.90;;;;;;5006461;28;20516;-73
2022/01/08 06:16:42;;;;;;;23.95;19.20;;;1.40;99.90;;;;;;5008525;28;20061;-73
2022/01/08 06:19:11;;;;;;;26.17;19.95;;;1.40;99.90;;;;;;5021548;28;20120;-74
2022/01/08 06:21:37;;;;;;;28.42;20.05;;;1.40;99.90;;;;;;5008651;28;20123;-72
2022/01/08 06:24:04;;;;;;;24.33;19.48;;;1.40;99.90;;;;;;5007492;28;20077;-72
2022/01/08 06:26:29;;;;;;;25.33;19.60;;;1.40;99.90;;;;;;5009093;28;20469;-74
2022/01/08 06:28:55;;;;;;;26.88;20.27;;;1.40;99.90;;;;;;5004629;28;20180;-73
2022/01/08 06:31:22;;;;;;;24.30;19.67;;;1.50;99.90;;;;;;5006344;28;20038;-73
2022/01/08 06:33:49;;;;;;;23.27;17.15;;;1.40;99.90;;;;;;5004848;28;20085;-74
2022/01/08 06:36:17;;;;;;;21.90;18.52;;;1.40;99.90;;;;;;5009976;28;20038;-73
2022/01/08 06:38:43;;;;;;;22.85;17.90;;;1.40;99.90;;;;;;5007773;28;20046;-73
2022/01/08 06:41:09;;;;;;;22.90;17.83;;;1.40;99.90;;;;;;5008045;28;20065;-73
2022/01/08 06:43:35;;;;;;;23.58;17.60;;;1.50;99.90;;;;;;5008713;28;20050;-73
2022/01/08 06:46:01;;;;;;;21.58;17.35;;;1.40;99.90;;;;;;5008850;28;20405;-73
2022/01/08 06:48:26;;;;;;;24.95;18.27;;;1.40;99.90;;;;;;5006807;28;20129;-74
2022/01/08 06:50:52;;;;;;;22.98;17.08;;;1.50;99.90;;;;;;5003817;28;20129;-73
2022/01/08 06:53:18;;;;;;;21.85;16.67;;;1.40;99.90;;;;;;5006946;28;20050;-73
2022/01/08 06:55:43;;;;;;;23.90;17.67;;;1.40;99.90;;;;;;5006234;28;20595;-73
2022/01/08 06:58:09;;;;;;;22.70;17.50;;;1.40;99.90;;;;;;5007859;28;20053;-73
2022/01/08 07:00:35;;;;;;;25.63;17.95;;;1.40;99.90;;;;;;5004135;28;20092;-73
2022/01/08 07:03:01;;;;;;;22.45;16.95;;;1.40;99.90;;;;;;5010392;28;20034;-73
2022/01/08 07:05:26;;;;;;;22.23;17.83;;;1.30;99.90;;;;;;5009681;28;20071;-72
2022/01/08 07:07:52;;;;;;;21.80;18.52;;;1.30;99.90;;;;;;5006787;28;20120;-74
2022/01/08 07:10:18;;;;;;;23.65;17.45;;;1.30;99.90;;;;;;5009351;28;20116;-78
2022/01/08 07:12:43;;;;;;;31.52;22.23;;;1.40;99.90;;;;;;5006613;28;20438;-73
2022/01/08 07:15:09;;;;;;;37.20;27.55;;;1.30;99.90;;;;;;5002591;28;20049;-74
2022/01/08 07:17:35;;;;;;;36.03;27.17;;;1.30;99.90;;;;;;5006671;28;20054;-73
2022/01/08 07:20:01;;;;;;;36.10;30.40;;;1.30;99.90;;;;;;5000526;28;20144;-72
2022/01/08 07:22:28;;;;;;;38.95;34.72;;;1.30;99.90;;;;;;5006415;28;20042;-74
2022/01/08 07:24:53;;;;;;;32.05;25.80;;;1.30;99.90;;;;;;5008459;28;20490;-74
2022/01/08 07:27:19;;;;;;;33.53;28.30;;;1.30;99.90;;;;;;5008030;28;20129;-73
2022/01/08 07:29:44;;;;;;;28.67;24.13;;;1.30;99.90;;;;;;5002172;28;20054;-74
2022/01/08 07:32:10;;;;;;;32.75;25.02;;;1.30;99.90;;;;;;5003509;28;20460;-74
2022/01/08 07:34:36;;;;;;;27.58;21.27;;;1.30;99.90;;;;;;5006851;28;20050;-74
2022/01/08 07:37:01;;;;;;;24.75;19.38;;;1.30;99.90;;;;;;5006183;28;20042;-74
2022/01/08 07:39:27;;;;;;;26.33;18.95;;;1.30;99.90;;;;;;5007850;28;20049;-74
2022/01/08 07:41:52;;;;;;;26.35;19.92;;;1.40;99.90;;;;;;5001491;28;20050;-74
2022/01/08 07:44:18;;;;;;;25.42;18.50;;;1.40;99.90;;;;;;5003544;28;21756;-74
2022/01/08 07:46:43;;;;;;;27.25;19.92;;;1.40;99.90;;;;;;5006000;28;20050;-74
2022/01/08 07:49:09;;;;;;;26.70;17.35;;;1.40;99.90;;;;;;5006376;28;20042;-74
2022/01/08 07:51:35;;;;;;;25.00;18.55;;;1.40;99.90;;;;;;5007491;28;20046;-74
2022/01/08 07:54:01;;;;;;;23.27;18.58;;;1.40;99.90;;;;;;5003447;28;20095;-74
2022/01/08 07:56:26;;;;;;;24.50;17.85;;;1.40;99.90;;;;;;5005011;28;20466;-74
2022/01/08 07:58:52;;;;;;;24.08;18.40;;;1.40;99.90;;;;;;5011448;28;20081;-74
2022/01/08 08:01:18;;;;;;;24.42;18.08;;;1.40;99.90;;;;;;5006757;28;20484;-74
2022/01/08 08:03:43;;;;;;;21.92;17.92;;;1.40;99.90;;;;;;4996538;28;20041;-74
2022/01/08 08:06:10;;;;;;;24.05;17.70;;;1.40;99.90;;;;;;5004497;28;20101;-74
2022/01/08 08:08:36;;;;;;;23.98;17.23;;;1.40;99.90;;;;;;5008197;28;20144;-74
2022/01/08 08:11:02;;;;;;;25.58;17.42;;;1.40;99.90;;;;;;5008390;28;20136;-74
2022/01/08 08:13:28;;;;;;;26.75;17.42;;;1.50;99.90;;;;;;5007374;28;20122;-74
2022/01/08 08:15:53;;;;;;;21.67;16.80;;;1.50;99.90;;;;;;5006856;28;20467;-73
2022/01/08 08:18:19;;;;;;;20.60;16.63;;;1.50;99.90;;;;;;5004065;28;20065;-73
2022/01/08 08:20:45;;;;;;;23.48;17.58;;;1.50;99.90;;;;;;5008928;28;20053;-75
2022/01/08 08:23:10;;;;;;;23.85;17.70;;;1.50;99.90;;;;;;5007809;28;20056;-74
2022/01/08 08:25:36;;;;;;;29.17;19.05;;;1.50;99.90;;;;;;5004062;28;20081;-74
2022/01/08 08:28:04;;;;;;;26.02;19.60;;;1.50;99.90;;;;;;5005553;28;20089;-74
2022/01/08 08:30:30;;;;;;;26.83;20.25;;;1.50;99.90;;;;;;5002225;28;20492;-73
2022/01/08 08:32:56;;;;;;;29.13;21.15;;;1.60;99.90;;;;;;5004930;28;20072;-74
2022/01/08 08:35:21;;;;;;;29.23;23.00;;;1.60;99.90;;;;;;5008249;28;20081;-74
2022/01/08 08:37:47;;;;;;;25.73;20.95;;;1.60;99.90;;;;;;5004613;28;20500;-74
2022/01/08 08:40:13;;;;;;;27.88;21.15;;;1.60;99.90;;;;;;5005963;28;20053;-74
2022/01/08 08:42:40;;;;;;;24.27;21.40;;;1.70;99.90;;;;;;5021962;28;20056;-74
2022/01/08 08:45:07;;;;;;;29.08;21.15;;;1.70;99.90;;;;;;5005810;28;20384;-75
2022/01/08 08:47:33;;;;;;;29.33;22.43;;;1.70;99.90;;;;;;5006161;28;20049;-75
2022/01/08 08:49:59;;;;;;;29.85;21.67;;;1.80;99.90;;;;;;5007959;28;20049;-73
2022/01/08 08:52:26;;;;;;;38.67;32.60;;;1.80;99.90;;;;;;5006210;28;20361;-73
2022/01/08 08:54:52;;;;;;;31.30;25.08;;;1.80;99.90;;;;;;5007530;28;20676;-71
2022/01/08 08:57:18;;;;;;;32.33;23.52;;;1.80;99.90;;;;;;5009054;28;20058;-71
2022/01/08 08:59:43;;;;;;;30.10;24.80;;;1.90;99.90;;;;;;5008036;28;20233;-71
2022/01/08 09:02:09;;;;;;;30.23;22.73;;;1.90;99.90;;;;;;5007279;28;20129;-73
2022/01/08 09:04:36;;;;;;;30.20;23.60;;;2.00;99.90;;;;;;5008490;28;20111;-73
2022/01/08 09:07:03;;;;;;;32.45;23.70;;;2.00;99.90;;;;;;5007813;28;20060;-72
2022/01/08 09:09:29;;;;;;;30.98;22.58;;;2.00;99.90;;;;;;5008669;28;20129;-74
2022/01/08 09:11:55;;;;;;;31.73;21.65;;;2.10;99.90;;;;;;5007841;28;20129;-73
2022/01/08 09:14:21;;;;;;;27.92;21.67;;;2.10;99.90;;;;;;5007773;28;20044;-72
2022/01/08 09:16:50;;;;;;;27.38;20.75;;;2.10;99.90;;;;;;5007621;28;20481;-73
2022/01/08 09:19:17;;;;;;;30.65;20.73;;;2.10;99.90;;;;;;5005516;28;20222;-74
2022/01/08 09:21:44;;;;;;;28.50;20.58;;;2.10;99.90;;;;;;5006550;28;20112;-73
2022/01/08 09:24:10;;;;;;;33.28;21.35;;;2.10;99.90;;;;;;5008416;28;20038;-73
2022/01/08 09:26:36;;;;;;;29.30;20.88;;;2.10;99.90;;;;;;5008193;28;20538;-73
2022/01/08 09:29:02;;;;;;;27.75;20.63;;;2.10;99.90;;;;;;5006856;28;20050;-73
2022/01/08 09:31:28;;;;;;;25.13;20.20;;;2.20;99.90;;;;;;5008545;28;20054;-73
2022/01/08 09:33:54;;;;;;;29.63;20.20;;;2.20;99.90;;;;;;5021651;28;20045;-72
2022/01/08 09:36:20;;;;;;;26.55;21.13;;;2.30;99.90;;;;;;5015340;28;20042;-73
2022/01/08 09:38:46;;;;;;;24.25;19.92;;;2.30;99.90;;;;;;5008981;28;20490;-71
2022/01/08 09:41:12;;;;;;;29.33;20.15;;;2.30;99.90;;;;;;5007504;28;20552;-71
2022/01/08 09:43:37;;;;;;;26.00;19.35;;;2.40;99.90;;;;;;5018617;28;20188;-73
2022/01/08 09:46:04;;;;;;;23.20;18.23;;;2.40;99.90;;;;;;5012587;28;20045;-72
2022/01/08 09:48:30;;;;;;;26.13;18.48;;;2.40;99.90;;;;;;5010536;28;20049;-72
2022/01/08 09:50:56;;;;;;;26.05;18.27;;;2.50;99.90;;;;;;5010934;28;20053;-72
2022/01/08 09:53:22;;;;;;;25.73;19.08;;;2.50;99.90;;;;;;5008461;28;20064;-72
2022/01/08 09:55:48;;;;;;;25.63;18.75;;;2.50;99.90;;;;;;5009849;28;20477;-74
2022/01/08 09:58:14;;;;;;;22.98;18.77;;;2.60;99.90;;;;;;5011018;28;20038;-73
2022/01/08 10:00:39;;;;;;;27.55;19.08;;;2.60;99.90;;;;;;5010095;28;20066;-72
2022/01/08 10:03:33;;;;;;;24.58;17.90;;;2.60;99.90;;;;;;5010569;28;20041;-72
2022/01/08 10:05:59;;;;;;;26.17;17.42;;;2.70;99.90;;;;;;5011856;28;20061;-72
2022/01/08 10:08:29;;;;;;;22.42;17.48;;;2.80;99.90;;;;;;5011649;28;20049;-71
2022/01/08 10:10:57;;;;;;;27.65;18.50;;;2.80;99.90;;;;;;5010782;28;20041;-72
2022/01/08 10:13:27;;;;;;;27.25;17.52;;;2.80;99.90;;;;;;5010094;28;20073;-72
2022/01/08 10:18:39;;;;;;;27.95;20.27;;;2.80;99.90;;;;;;5008931;28;20049;-71
2022/01/08 10:21:17;;;;;;;59.10;37.65;;;2.90;99.90;;;;;;4997032;28;20069;-72
2022/01/08 10:23:55;;;;;;;37.35;25.00;;;2.90;99.90;;;;;;5009447;28;20049;-74
2022/01/08 10:26:31;;;;;;;35.67;23.50;;;2.90;99.90;;;;;;5010687;28;20084;-72
2022/01/08 10:28:59;;;;;;;32.17;22.48;;;2.90;99.90;;;;;;5009981;28;20088;-72
2022/01/08 10:31:34;;;;;;;26.80;19.60;;;3.00;99.90;;;;;;5010660;28;20388;-73
2022/01/08 10:34:02;;;;;;;26.13;18.35;;;3.00;99.90;;;;;;5010380;28;20050;-73
2022/01/08 10:36:35;;;;;;;25.88;16.75;;;3.00;99.90;;;;;;5011068;28;20452;-73
2022/01/08 10:39:04;;;;;;;26.65;17.38;;;3.00;99.90;;;;;;5004185;28;20053;-73
2022/01/08 10:41:29;;;;;;;27.55;17.83;;;3.00;99.90;;;;;;5002771;28;20088;-72
2022/01/08 10:44:07;;;;;;;24.48;16.63;;;3.00;99.90;;;;;;5009311;28;20081;-72
2022/01/08 10:46:34;;;;;;;23.60;16.40;;;3.10;99.90;;;;;;5008266;28;20052;-73
2022/01/08 10:49:00;;;;;;;25.77;16.73;;;3.00;99.90;;;;;;5009330;28;20045;-73
2022/01/08 10:51:32;;;;;;;22.13;16.33;;;3.10;99.90;;;;;;5007046;28;20037;-73
2022/01/08 10:54:05;;;;;;;28.85;16.42;;;3.10;99.90;;;;;;5008022;28;20570;-73
2022/01/08 10:56:37;;;;;;;21.23;16.63;;;3.10;99.90;;;;;;5009927;28;20096;-72
2022/01/08 10:59:09;;;;;;;23.25;16.88;;;3.10;99.90;;;;;;5010620;28;20517;-72
2022/01/08 11:01:42;;;;;;;21.38;16.25;;;3.10;99.90;;;;;;5009015;28;20433;-72
2022/01/08 11:04:11;;;;;;;29.48;17.05;;;3.20;99.90;;;;;;5009471;28;20084;-73
2022/01/08 11:06:57;;;;;;;23.27;16.88;;;3.20;99.90;;;;;;5008977;28;20096;-72
2022/01/08 11:09:25;;;;;;;21.88;17.35;;;3.30;99.90;;;;;;5006542;28;20125;-72
2022/01/08 11:11:51;;;;;;;;;;;3.30;99.90;;;;;;5009984;28;20049;-73
2022/01/08 11:14:44;;;;;;;26.88;17.35;;;3.30;99.90;;;;;;5010470;28;19922;-73
2022/01/08 11:17:13;;;;;;;25.13;16.92;;;3.30;99.90;;;;;;4997280;28;20650;-72
2022/01/08 11:19:47;;;;;;;27.23;19.08;;;3.30;99.90;;;;;;5009347;28;20057;-75
2022/01/08 11:22:15;;;;;;;29.60;21.75;;;3.50;99.90;;;;;;5006844;28;20525;-74
2022/01/08 11:24:48;;;;;;;26.63;20.70;;;3.40;99.90;;;;;;5007942;28;20061;-77
2022/01/08 11:27:14;;;;;;;26.65;18.98;;;3.50;99.90;;;;;;5009619;28;20061;-73
2022/01/08 11:29:43;;;;;;;24.92;19.42;;;3.50;99.90;;;;;;4998394;28;20044;-74
2022/01/08 11:32:11;;;;;;;29.45;21.00;;;3.50;99.90;;;;;;5009445;28;20056;-73
2022/01/08 11:34:40;;;;;;;28.70;22.90;;;3.50;99.90;;;;;;5006942;28;20060;-75
2022/01/08 11:37:08;;;;;;;53.47;41.30;;;3.50;99.90;;;;;;5025257;28;20056;-73
2022/01/08 11:39:34;;;;;;;;;;;3.50;99.90;;;;;;5008005;28;20049;-73
2022/01/08 11:42:00;;;;;;;30.98;24.92;;;3.50;99.90;;;;;;5009075;28;19975;-73
2022/01/08 11:44:29;;;;;;;34.72;29.77;;;3.50;99.90;;;;;;5008709;28;20042;-73
2022/01/08 11:46:55;;;;;;;31.05;22.73;;;3.60;99.90;;;;;;5008075;28;20049;-73
2022/01/08 11:49:21;;;;;;;36.47;31.98;;;3.60;99.90;;;;;;5009005;28;20385;-71
2022/01/08 11:51:47;;;;;;;31.20;23.85;;;3.60;99.90;;;;;;5004913;28;20519;-72
2022/01/08 11:54:12;;;;;;;32.10;24.83;;;3.60;99.90;;;;;;5008420;28;20046;-74
2022/01/08 11:56:39;;;;;;;31.88;27.80;;;3.60;99.90;;;;;;5013104;28;20045;-73
2022/01/08 11:59:18;;;;;;;32.55;26.27;;;3.60;99.90;;;;;;5015428;28;20072;-74
2022/01/08 12:02:04;;;;;;;29.20;26.00;;;3.60;99.90;;;;;;5006668;28;20392;-76
2022/01/08 12:04:32;;;;;;;34.80;26.30;;;3.60;99.90;;;;;;5003679;28;20061;-78
2022/01/08 12:07:18;;;;;;;36.30;27.92;;;3.60;99.90;;;;;;5008810;28;20438;-75
2022/01/08 12:09:44;;;;;;;33.45;28.92;;;3.60;99.90;;;;;;5007787;28;20038;-73
2022/01/08 12:12:10;;;;;;;40.67;29.90;;;3.60;99.90;;;;;;5008051;28;20156;-73
2022/01/08 12:14:41;;;;;;;31.95;28.50;;;3.60;99.90;;;;;;5007551;28;20125;-73
2022/01/08 12:17:20;;;;;;;35.72;29.33;;;3.60;99.90;;;;;;5020382;28;20081;-73
2022/01/08 12:19:51;;;;;;;32.67;29.15;;;3.60;99.90;;;;;;5007068;28;20631;-74
2022/01/08 12:22:20;;;;;;;38.00;30.63;;;3.60;99.90;;;;;;5009968;28;20053;-74
2022/01/08 12:24:51;;;;;;;36.85;32.80;;;3.60;99.90;;;;;;5007082;28;20046;-74
2022/01/08 12:27:33;;;;;;;34.45;28.90;;;3.60;99.90;;;;;;5007496;28;20058;-74
2022/01/08 12:30:21;;;;;;;36.53;29.33;;;3.60;99.90;;;;;;5008155;28;20057;-74
2022/01/08 12:32:50;;;;;;;;;;;3.60;99.90;;;;;;5002668;28;20129;-74
2022/01/08 12:35:20;;;;;;;32.90;27.83;;;3.60;99.90;;;;;;5007633;28;19933;-74
2022/01/08 12:38:00;;;;;;;31.95;26.50;;;3.60;99.90;;;;;;5003669;28;20049;-74
2022/01/08 12:40:51;;;;;;;36.70;28.65;;;3.70;99.90;;;;;;5021269;28;20046;-74
2022/01/08 12:43:33;;;;;;;35.78;28.70;;;3.70;99.90;;;;;;5006049;28;20537;-74
2022/01/08 12:46:22;;;;;;;39.45;29.50;;;3.70;99.90;;;;;;5005857;28;20041;-75
2022/01/08 12:49:14;;;;;;;36.88;29.17;;;3.70;99.90;;;;;;5010603;28;20041;-73
2022/01/08 12:51:48;;;;;;;37.70;28.52;;;3.70;99.90;;;;;;5005209;28;20498;-72
2022/01/08 12:54:19;;;;;;;36.33;29.67;;;3.70;99.90;;;;;;5006146;28;20127;-73
2022/01/08 12:56:51;;;;;;;35.47;29.38;;;3.70;99.90;;;;;;5007366;28;20046;-72
2022/01/08 12:59:17;;;;;;;38.45;29.20;;;3.80;99.90;;;;;;5015140;28;20077;-72
2022/01/08 13:01:50;;;;;;;38.47;29.13;;;3.80;99.90;;;;;;5007595;28;20172;-72